sensor_id;sensor_type;location;lat;lon;timestamp;temperature;humidity
21425;DHT22;10873;51.132;16.848;2022-11-15T00:00:44;23.90;51.10
21425;DHT22;10873;51.132;16.848;2022-11-15T00:03:09;23.90;51.20
21425;DHT22;10873;51.132;16.848;2022-11-15T00:05:36;23.90;51.10
21425;DHT22;10873;51.132;16.848;2022-11-15T00:08:01;23.90;51.10
21425;DHT22;10873;51.132;16.848;2022-11-15T00:10:27;23.90;51.10
21425;DHT22;10873;51.132;16.848;2022-11-15T00:12:53;23.90;51.10
21425;DHT22;10873;51.132;16.848;2022-11-15T00:15:21;23.90;51.00
21425;DHT22;10873;51.132;16.848;2022-11-15T00:17:48;23.90;51.10
21425;DHT22;10873;51.132;16.848;2022-11-15T00:35:48;23.90;51.00
21425;DHT22;10873;51.132;16.848;2022-11-15T00:38:14;23.90;51.00
21425;DHT22;10873;51.132;16.848;2022-11-15T00:40:40;23.90;51.00
21425;DHT22;10873;51.132;16.848;2022-11-15T00:43:06;23.90;51.00
21425;DHT22;10873;51.132;16.848;2022-11-15T00:45:33;23.90;50.90
21425;DHT22;10873;51.132;16.848;2022-11-15T00:47:59;23.90;50.90
21425;DHT22;10873;51.132;16.848;2022-11-15T00:50:25;23.80;50.90
21425;DHT22;10873;51.132;16.848;2022-11-15T00:52:53;23.80;50.80
21425;DHT22;10873;51.132;16.848;2022-11-15T00:55:19;23.90;50.90
21425;DHT22;10873;51.132;16.848;2022-11-15T00:57:46;23.80;50.80
21425;DHT22;10873;51.132;16.848;2022-11-15T01:00:12;23.80;50.80
21425;DHT22;10873;51.132;16.848;2022-11-15T01:02:38;23.80;50.90
21425;DHT22;10873;51.132;16.848;2022-11-15T01:05:05;23.80;51.00
21425;DHT22;10873;51.132;16.848;2022-11-15T01:07:32;23.80;50.90
21425;DHT22;10873;51.132;16.848;2022-11-15T01:10:00;23.90;50.90
21425;DHT22;10873;51.132;16.848;2022-11-15T01:12:26;23.90;50.90
21425;DHT22;10873;51.132;16.848;2022-11-15T01:14:52;23.90;50.80
21425;DHT22;10873;51.132;16.848;2022-11-15T01:17:18;23.90;50.90
21425;DHT22;10873;51.132;16.848;2022-11-15T01:19:44;23.90;50.80
21425;DHT22;10873;51.132;16.848;2022-11-15T01:22:10;23.90;50.70
21425;DHT22;10873;51.132;16.848;2022-11-15T01:24:36;23.90;50.70
21425;DHT22;10873;51.132;16.848;2022-11-15T01:27:03;23.90;50.60
21425;DHT22;10873;51.132;16.848;2022-11-15T01:29:29;23.90;50.60
21425;DHT22;10873;51.132;16.848;2022-11-15T01:31:55;23.90;50.50
21425;DHT22;10873;51.132;16.848;2022-11-15T01:34:21;23.90;50.50
21425;DHT22;10873;51.132;16.848;2022-11-15T01:36:47;23.90;50.50
21425;DHT22;10873;51.132;16.848;2022-11-15T01:39:13;23.90;50.50
21425;DHT22;10873;51.132;16.848;2022-11-15T01:41:39;23.90;50.40
21425;DHT22;10873;51.132;16.848;2022-11-15T01:44:43;23.90;50.40
21425;DHT22;10873;51.132;16.848;2022-11-15T01:47:12;23.90;50.40
21425;DHT22;10873;51.132;16.848;2022-11-15T01:49:41;23.90;50.30
21425;DHT22;10873;51.132;16.848;2022-11-15T01:52:17;23.90;50.30
21425;DHT22;10873;51.132;16.848;2022-11-15T01:54:44;23.90;50.30
21425;DHT22;10873;51.132;16.848;2022-11-15T01:57:12;23.90;50.20
21425;DHT22;10873;51.132;16.848;2022-11-15T01:59:42;23.90;50.20
21425;DHT22;10873;51.132;16.848;2022-11-15T02:02:09;23.90;50.20
21425;DHT22;10873;51.132;16.848;2022-11-15T02:04:39;23.90;50.20
21425;DHT22;10873;51.132;16.848;2022-11-15T02:07:06;23.90;50.10
21425;DHT22;10873;51.132;16.848;2022-11-15T02:09:35;23.90;50.10
21425;DHT22;10873;51.132;16.848;2022-11-15T02:12:02;23.80;50.00
21425;DHT22;10873;51.132;16.848;2022-11-15T02:14:29;23.90;50.10
21425;DHT22;10873;51.132;16.848;2022-11-15T02:17:02;23.80;50.00
21425;DHT22;10873;51.132;16.848;2022-11-15T02:19:53;23.80;50.00
21425;DHT22;10873;51.132;16.848;2022-11-15T02:22:35;23.80;50.00
21425;DHT22;10873;51.132;16.848;2022-11-15T02:25:29;23.80;50.00
21425;DHT22;10873;51.132;16.848;2022-11-15T02:28:35;23.80;50.00
21425;DHT22;10873;51.132;16.848;2022-11-15T02:31:09;23.80;50.00
21425;DHT22;10873;51.132;16.848;2022-11-15T02:33:42;23.80;50.00
21425;DHT22;10873;51.132;16.848;2022-11-15T02:36:15;23.80;50.00
21425;DHT22;10873;51.132;16.848;2022-11-15T02:38:47;23.80;50.00
21425;DHT22;10873;51.132;16.848;2022-11-15T02:41:25;23.80;50.00
21425;DHT22;10873;51.132;16.848;2022-11-15T02:43:58;23.80;50.00
21425;DHT22;10873;51.132;16.848;2022-11-15T02:46:32;23.80;50.00
21425;DHT22;10873;51.132;16.848;2022-11-15T02:49:18;23.80;50.10
21425;DHT22;10873;51.132;16.848;2022-11-15T02:51:46;23.80;50.00
21425;DHT22;10873;51.132;16.848;2022-11-15T02:54:15;23.70;50.00
21425;DHT22;10873;51.132;16.848;2022-11-15T02:56:45;23.70;50.00
21425;DHT22;10873;51.132;16.848;2022-11-15T02:59:23;23.70;50.00
21425;DHT22;10873;51.132;16.848;2022-11-15T03:02:08;23.70;49.90
21425;DHT22;10873;51.132;16.848;2022-11-15T03:04:43;23.70;49.90
21425;DHT22;10873;51.132;16.848;2022-11-15T03:07:12;23.70;49.80
21425;DHT22;10873;51.132;16.848;2022-11-15T03:09:44;23.70;49.80
21425;DHT22;10873;51.132;16.848;2022-11-15T03:12:15;23.70;49.80
21425;DHT22;10873;51.132;16.848;2022-11-15T03:14:53;23.70;49.90
21425;DHT22;10873;51.132;16.848;2022-11-15T03:17:25;23.70;49.80
21425;DHT22;10873;51.132;16.848;2022-11-15T03:19:54;23.70;49.80
21425;DHT22;10873;51.132;16.848;2022-11-15T03:22:23;23.70;49.80
21425;DHT22;10873;51.132;16.848;2022-11-15T03:24:53;23.70;49.80
21425;DHT22;10873;51.132;16.848;2022-11-15T03:27:24;23.70;49.70
21425;DHT22;10873;51.132;16.848;2022-11-15T03:29:53;23.70;49.70
21425;DHT22;10873;51.132;16.848;2022-11-15T03:32:25;23.70;49.70
21425;DHT22;10873;51.132;16.848;2022-11-15T03:34:55;23.70;49.60
21425;DHT22;10873;51.132;16.848;2022-11-15T03:37:27;23.70;49.70
21425;DHT22;10873;51.132;16.848;2022-11-15T03:39:55;23.70;49.60
21425;DHT22;10873;51.132;16.848;2022-11-15T03:42:24;23.70;49.50
21425;DHT22;10873;51.132;16.848;2022-11-15T03:44:57;23.70;49.50
21425;DHT22;10873;51.132;16.848;2022-11-15T03:47:30;23.60;49.50
21425;DHT22;10873;51.132;16.848;2022-11-15T03:50:01;23.60;49.50
21425;DHT22;10873;51.132;16.848;2022-11-15T03:52:31;23.60;49.60
21425;DHT22;10873;51.132;16.848;2022-11-15T03:55:01;23.60;49.70
21425;DHT22;10873;51.132;16.848;2022-11-15T03:57:27;23.60;49.70
21425;DHT22;10873;51.132;16.848;2022-11-15T03:59:53;23.60;49.80
21425;DHT22;10873;51.132;16.848;2022-11-15T04:02:19;23.60;49.90
21425;DHT22;10873;51.132;16.848;2022-11-15T04:04:46;23.60;49.80
21425;DHT22;10873;51.132;16.848;2022-11-15T04:07:12;23.60;49.70
21425;DHT22;10873;51.132;16.848;2022-11-15T04:09:39;23.60;49.60
21425;DHT22;10873;51.132;16.848;2022-11-15T04:12:24;23.60;49.50
21425;DHT22;10873;51.132;16.848;2022-11-15T04:14:57;23.60;49.60
21425;DHT22;10873;51.132;16.848;2022-11-15T04:17:40;23.60;49.80
21425;DHT22;10873;51.132;16.848;2022-11-15T04:20:10;23.60;49.80
21425;DHT22;10873;51.132;16.848;2022-11-15T04:22:57;23.60;49.80
21425;DHT22;10873;51.132;16.848;2022-11-15T04:25:42;23.60;49.80
21425;DHT22;10873;51.132;16.848;2022-11-15T04:28:08;23.60;49.80
21425;DHT22;10873;51.132;16.848;2022-11-15T04:30:35;23.60;49.80
21425;DHT22;10873;51.132;16.848;2022-11-15T04:33:00;23.60;49.70
21425;DHT22;10873;51.132;16.848;2022-11-15T04:35:28;23.60;49.60
21425;DHT22;10873;51.132;16.848;2022-11-15T04:37:54;23.60;49.50
21425;DHT22;10873;51.132;16.848;2022-11-15T04:40:21;23.60;49.50
21425;DHT22;10873;51.132;16.848;2022-11-15T04:42:46;23.60;49.50
21425;DHT22;10873;51.132;16.848;2022-11-15T04:45:13;23.60;49.50
21425;DHT22;10873;51.132;16.848;2022-11-15T04:47:38;23.60;49.60
21425;DHT22;10873;51.132;16.848;2022-11-15T04:50:06;23.60;49.60
21425;DHT22;10873;51.132;16.848;2022-11-15T04:52:33;23.60;49.70
21425;DHT22;10873;51.132;16.848;2022-11-15T04:54:59;23.60;49.60
21425;DHT22;10873;51.132;16.848;2022-11-15T04:57:25;23.60;49.70
21425;DHT22;10873;51.132;16.848;2022-11-15T04:59:51;23.70;49.50
21425;DHT22;10873;51.132;16.848;2022-11-15T05:02:17;23.70;49.90
21425;DHT22;10873;51.132;16.848;2022-11-15T05:04:43;23.70;49.40
21425;DHT22;10873;51.132;16.848;2022-11-15T05:07:09;23.70;49.30
21425;DHT22;10873;51.132;16.848;2022-11-15T05:09:36;23.70;49.40
21425;DHT22;10873;51.132;16.848;2022-11-15T05:12:02;23.60;49.20
21425;DHT22;10873;51.132;16.848;2022-11-15T05:14:28;23.60;49.30
21425;DHT22;10873;51.132;16.848;2022-11-15T05:16:54;23.70;49.30
21425;DHT22;10873;51.132;16.848;2022-11-15T05:19:21;23.70;49.40
21425;DHT22;10873;51.132;16.848;2022-11-15T05:21:47;23.70;49.40
21425;DHT22;10873;51.132;16.848;2022-11-15T05:24:13;23.70;49.30
21425;DHT22;10873;51.132;16.848;2022-11-15T05:26:40;23.70;49.20
21425;DHT22;10873;51.132;16.848;2022-11-15T05:29:09;23.70;49.10
21425;DHT22;10873;51.132;16.848;2022-11-15T05:31:39;23.70;49.00
21425;DHT22;10873;51.132;16.848;2022-11-15T05:34:06;23.70;49.00
21425;DHT22;10873;51.132;16.848;2022-11-15T05:36:34;23.70;49.00
21425;DHT22;10873;51.132;16.848;2022-11-15T05:39:02;23.70;49.10
21425;DHT22;10873;51.132;16.848;2022-11-15T05:41:32;23.70;49.20
21425;DHT22;10873;51.132;16.848;2022-11-15T05:44:03;23.70;49.30
21425;DHT22;10873;51.132;16.848;2022-11-15T05:46:31;23.70;49.30
21425;DHT22;10873;51.132;16.848;2022-11-15T05:48:59;23.70;49.30
21425;DHT22;10873;51.132;16.848;2022-11-15T05:51:27;23.70;49.20
21425;DHT22;10873;51.132;16.848;2022-11-15T05:53:55;23.70;49.10
21425;DHT22;10873;51.132;16.848;2022-11-15T05:56:21;23.70;49.10
21425;DHT22;10873;51.132;16.848;2022-11-15T05:58:48;23.70;49.10
21425;DHT22;10873;51.132;16.848;2022-11-15T06:01:15;23.70;49.10
21425;DHT22;10873;51.132;16.848;2022-11-15T06:03:41;23.70;49.10
21425;DHT22;10873;51.132;16.848;2022-11-15T06:06:07;23.70;49.10
21425;DHT22;10873;51.132;16.848;2022-11-15T06:08:33;23.70;49.10
21425;DHT22;10873;51.132;16.848;2022-11-15T06:11:03;23.70;49.20
21425;DHT22;10873;51.132;16.848;2022-11-15T06:13:30;23.70;49.10
21425;DHT22;10873;51.132;16.848;2022-11-15T06:15:56;23.70;49.00
21425;DHT22;10873;51.132;16.848;2022-11-15T06:18:24;23.70;49.00
21425;DHT22;10873;51.132;16.848;2022-11-15T06:20:49;23.70;49.00
21425;DHT22;10873;51.132;16.848;2022-11-15T06:23:16;23.70;49.00
21425;DHT22;10873;51.132;16.848;2022-11-15T06:25:41;23.70;48.90
21425;DHT22;10873;51.132;16.848;2022-11-15T06:28:08;23.70;48.90
21425;DHT22;10873;51.132;16.848;2022-11-15T06:30:34;23.70;48.90
21425;DHT22;10873;51.132;16.848;2022-11-15T06:33:00;23.70;48.90
21425;DHT22;10873;51.132;16.848;2022-11-15T06:35:28;23.70;48.90
21425;DHT22;10873;51.132;16.848;2022-11-15T06:37:55;23.80;49.00
21425;DHT22;10873;51.132;16.848;2022-11-15T06:40:21;23.70;48.90
21425;DHT22;10873;51.132;16.848;2022-11-15T06:42:47;23.80;48.90
21425;DHT22;10873;51.132;16.848;2022-11-15T06:45:13;23.80;48.80
21425;DHT22;10873;51.132;16.848;2022-11-15T06:47:44;23.80;48.80
21425;DHT22;10873;51.132;16.848;2022-11-15T06:50:11;23.80;48.70
21425;DHT22;10873;51.132;16.848;2022-11-15T06:52:38;23.80;48.70
21425;DHT22;10873;51.132;16.848;2022-11-15T06:55:05;23.80;48.70
21425;DHT22;10873;51.132;16.848;2022-11-15T06:57:31;23.80;48.60
21425;DHT22;10873;51.132;16.848;2022-11-15T06:59:57;23.80;48.50
21425;DHT22;10873;51.132;16.848;2022-11-15T07:02:24;23.80;48.50
21425;DHT22;10873;51.132;16.848;2022-11-15T07:04:50;23.80;48.60
21425;DHT22;10873;51.132;16.848;2022-11-15T07:07:17;23.80;48.60
21425;DHT22;10873;51.132;16.848;2022-11-15T07:09:44;23.80;48.60
21425;DHT22;10873;51.132;16.848;2022-11-15T07:12:10;23.90;48.70
21425;DHT22;10873;51.132;16.848;2022-11-15T07:14:36;23.80;48.70
21425;DHT22;10873;51.132;16.848;2022-11-15T07:17:03;23.90;48.70
21425;DHT22;10873;51.132;16.848;2022-11-15T07:19:30;23.80;48.70
21425;DHT22;10873;51.132;16.848;2022-11-15T07:21:56;23.90;48.70
21425;DHT22;10873;51.132;16.848;2022-11-15T07:24:22;23.80;48.70
21425;DHT22;10873;51.132;16.848;2022-11-15T07:26:50;23.80;48.80
21425;DHT22;10873;51.132;16.848;2022-11-15T07:29:15;23.80;48.90
21425;DHT22;10873;51.132;16.848;2022-11-15T07:31:42;23.80;49.00
21425;DHT22;10873;51.132;16.848;2022-11-15T07:34:07;23.80;49.00
21425;DHT22;10873;51.132;16.848;2022-11-15T07:36:35;23.80;49.00
21425;DHT22;10873;51.132;16.848;2022-11-15T07:39:01;23.90;49.10
21425;DHT22;10873;51.132;16.848;2022-11-15T07:41:28;23.80;49.00
21425;DHT22;10873;51.132;16.848;2022-11-15T07:43:56;23.80;49.10
21425;DHT22;10873;51.132;16.848;2022-11-15T07:46:23;23.80;49.10
21425;DHT22;10873;51.132;16.848;2022-11-15T07:48:49;23.90;49.20
21425;DHT22;10873;51.132;16.848;2022-11-15T07:51:16;23.90;49.90
21425;DHT22;10873;51.132;16.848;2022-11-15T07:53:42;23.90;49.30
21425;DHT22;10873;51.132;16.848;2022-11-15T07:56:09;23.80;49.30
21425;DHT22;10873;51.132;16.848;2022-11-15T07:58:36;23.80;49.40
21425;DHT22;10873;51.132;16.848;2022-11-15T08:01:04;23.90;49.50
21425;DHT22;10873;51.132;16.848;2022-11-15T08:03:31;23.80;49.60
21425;DHT22;10873;51.132;16.848;2022-11-15T08:05:57;23.90;49.70
21425;DHT22;10873;51.132;16.848;2022-11-15T08:08:23;23.90;49.80
21425;DHT22;10873;51.132;16.848;2022-11-15T08:10:50;23.90;49.80
21425;DHT22;10873;51.132;16.848;2022-11-15T08:13:16;23.90;49.80
21425;DHT22;10873;51.132;16.848;2022-11-15T08:15:43;23.90;49.80
21425;DHT22;10873;51.132;16.848;2022-11-15T08:18:12;23.90;49.80
21425;DHT22;10873;51.132;16.848;2022-11-15T08:20:38;23.90;49.90
21425;DHT22;10873;51.132;16.848;2022-11-15T08:23:05;23.90;49.90
21425;DHT22;10873;51.132;16.848;2022-11-15T08:25:33;24.00;50.00
21425;DHT22;10873;51.132;16.848;2022-11-15T08:28:00;24.00;50.00
21425;DHT22;10873;51.132;16.848;2022-11-15T08:30:27;23.90;50.00
21425;DHT22;10873;51.132;16.848;2022-11-15T08:32:56;24.00;50.20
21425;DHT22;10873;51.132;16.848;2022-11-15T08:35:24;23.90;50.20
21425;DHT22;10873;51.132;16.848;2022-11-15T08:37:52;24.00;50.40
21425;DHT22;10873;51.132;16.848;2022-11-15T08:40:18;24.00;50.40
21425;DHT22;10873;51.132;16.848;2022-11-15T08:42:46;24.00;50.50
21425;DHT22;10873;51.132;16.848;2022-11-15T08:45:12;24.00;50.50
21425;DHT22;10873;51.132;16.848;2022-11-15T08:47:38;24.00;50.50
21425;DHT22;10873;51.132;16.848;2022-11-15T08:50:05;24.00;50.50
21425;DHT22;10873;51.132;16.848;2022-11-15T08:52:33;24.00;50.60
21425;DHT22;10873;51.132;16.848;2022-11-15T08:54:59;24.10;50.70
21425;DHT22;10873;51.132;16.848;2022-11-15T08:57:28;24.10;51.30
21425;DHT22;10873;51.132;16.848;2022-11-15T08:59:55;24.00;50.70
21425;DHT22;10873;51.132;16.848;2022-11-15T09:02:21;24.10;50.80
21425;DHT22;10873;51.132;16.848;2022-11-15T09:04:47;24.10;50.80
21425;DHT22;10873;51.132;16.848;2022-11-15T09:07:13;24.10;50.90
21425;DHT22;10873;51.132;16.848;2022-11-15T09:09:41;24.10;50.90
21425;DHT22;10873;51.132;16.848;2022-11-15T09:12:07;24.10;51.00
21425;DHT22;10873;51.132;16.848;2022-11-15T09:14:34;24.10;51.10
21425;DHT22;10873;51.132;16.848;2022-11-15T09:17:00;24.10;51.20
21425;DHT22;10873;51.132;16.848;2022-11-15T09:19:26;24.10;51.20
21425;DHT22;10873;51.132;16.848;2022-11-15T09:21:52;24.10;51.20
21425;DHT22;10873;51.132;16.848;2022-11-15T09:24:18;24.10;51.30
21425;DHT22;10873;51.132;16.848;2022-11-15T09:26:45;24.10;51.30
21425;DHT22;10873;51.132;16.848;2022-11-15T09:29:12;24.10;51.40
21425;DHT22;10873;51.132;16.848;2022-11-15T09:31:38;24.10;51.50
21425;DHT22;10873;51.132;16.848;2022-11-15T09:34:04;24.20;51.60
21425;DHT22;10873;51.132;16.848;2022-11-15T09:36:30;24.10;52.20
21425;DHT22;10873;51.132;16.848;2022-11-15T09:38:57;24.10;51.70
21425;DHT22;10873;51.132;16.848;2022-11-15T09:41:34;24.10;51.70
21425;DHT22;10873;51.132;16.848;2022-11-15T09:44:17;24.10;51.80
21425;DHT22;10873;51.132;16.848;2022-11-15T09:46:49;24.10;51.80
21425;DHT22;10873;51.132;16.848;2022-11-15T09:49:18;24.10;51.90
21425;DHT22;10873;51.132;16.848;2022-11-15T09:51:46;24.20;52.00
21425;DHT22;10873;51.132;16.848;2022-11-15T09:54:23;24.20;52.10
21425;DHT22;10873;51.132;16.848;2022-11-15T09:56:51;24.20;52.10
21425;DHT22;10873;51.132;16.848;2022-11-15T09:59:31;24.20;52.20
21425;DHT22;10873;51.132;16.848;2022-11-15T10:02:09;24.20;52.20
21425;DHT22;10873;51.132;16.848;2022-11-15T10:04:37;24.20;52.30
21425;DHT22;10873;51.132;16.848;2022-11-15T10:07:10;24.20;52.40
21425;DHT22;10873;51.132;16.848;2022-11-15T10:09:44;24.20;52.40
21425;DHT22;10873;51.132;16.848;2022-11-15T10:12:13;24.20;52.50
21425;DHT22;10873;51.132;16.848;2022-11-15T10:14:41;24.20;52.50
21425;DHT22;10873;51.132;16.848;2022-11-15T10:17:26;24.20;52.60
21425;DHT22;10873;51.132;16.848;2022-11-15T10:20:05;24.20;52.70
21425;DHT22;10873;51.132;16.848;2022-11-15T10:22:38;24.20;52.70
21425;DHT22;10873;51.132;16.848;2022-11-15T10:25:17;24.20;52.80
21425;DHT22;10873;51.132;16.848;2022-11-15T10:27:45;24.20;52.80
21425;DHT22;10873;51.132;16.848;2022-11-15T10:30:16;24.20;52.90
21425;DHT22;10873;51.132;16.848;2022-11-15T10:32:44;24.20;53.00
21425;DHT22;10873;51.132;16.848;2022-11-15T10:35:23;24.30;53.10
21425;DHT22;10873;51.132;16.848;2022-11-15T10:37:49;24.20;53.10
21425;DHT22;10873;51.132;16.848;2022-11-15T10:40:17;24.30;53.20
21425;DHT22;10873;51.132;16.848;2022-11-15T10:42:44;24.30;53.20
21425;DHT22;10873;51.132;16.848;2022-11-15T10:45:28;24.30;53.30
21425;DHT22;10873;51.132;16.848;2022-11-15T10:48:21;24.30;53.30
21425;DHT22;10873;51.132;16.848;2022-11-15T10:50:50;24.30;53.30
21425;DHT22;10873;51.132;16.848;2022-11-15T10:53:23;24.40;53.40
21425;DHT22;10873;51.132;16.848;2022-11-15T10:55:51;24.40;53.40
21425;DHT22;10873;51.132;16.848;2022-11-15T10:58:27;24.40;53.50
21425;DHT22;10873;51.132;16.848;2022-11-15T11:01:09;24.40;53.50
21425;DHT22;10873;51.132;16.848;2022-11-15T11:03:37;24.40;53.50
21425;DHT22;10873;51.132;16.848;2022-11-15T11:06:06;24.40;53.50
21425;DHT22;10873;51.132;16.848;2022-11-15T11:08:32;24.40;53.50
21425;DHT22;10873;51.132;16.848;2022-11-15T11:11:01;24.40;53.60
21425;DHT22;10873;51.132;16.848;2022-11-15T11:13:29;24.40;53.60
21425;DHT22;10873;51.132;16.848;2022-11-15T11:16:15;24.50;53.80
21425;DHT22;10873;51.132;16.848;2022-11-15T11:18:51;24.50;53.80
21425;DHT22;10873;51.132;16.848;2022-11-15T11:21:25;24.50;53.80
21425;DHT22;10873;51.132;16.848;2022-11-15T11:23:54;24.50;53.90
21425;DHT22;10873;51.132;16.848;2022-11-15T11:26:35;24.50;53.90
21425;DHT22;10873;51.132;16.848;2022-11-15T11:29:18;24.50;54.60
21425;DHT22;10873;51.132;16.848;2022-11-15T11:31:54;24.50;54.00
21425;DHT22;10873;51.132;16.848;2022-11-15T11:34:34;24.50;54.60
21425;DHT22;10873;51.132;16.848;2022-11-15T11:37:11;24.50;54.00
21425;DHT22;10873;51.132;16.848;2022-11-15T11:39:47;24.50;54.00
21425;DHT22;10873;51.132;16.848;2022-11-15T11:42:21;24.50;54.00
21425;DHT22;10873;51.132;16.848;2022-11-15T11:45:00;24.50;54.00
21425;DHT22;10873;51.132;16.848;2022-11-15T11:47:31;24.50;54.00
21425;DHT22;10873;51.132;16.848;2022-11-15T11:50:03;24.50;54.10
21425;DHT22;10873;51.132;16.848;2022-11-15T11:52:40;24.50;54.10
21425;DHT22;10873;51.132;16.848;2022-11-15T11:55:15;24.50;54.10
21425;DHT22;10873;51.132;16.848;2022-11-15T11:57:46;24.50;54.10
21425;DHT22;10873;51.132;16.848;2022-11-15T12:00:18;24.50;54.20
21425;DHT22;10873;51.132;16.848;2022-11-15T12:02:53;24.50;54.20
21425;DHT22;10873;51.132;16.848;2022-11-15T12:05:27;24.50;54.20
21425;DHT22;10873;51.132;16.848;2022-11-15T12:08:01;24.50;54.20
21425;DHT22;10873;51.132;16.848;2022-11-15T12:10:30;24.50;54.30
21425;DHT22;10873;51.132;16.848;2022-11-15T12:13:02;24.50;54.30
21425;DHT22;10873;51.132;16.848;2022-11-15T12:15:32;24.50;54.30
21425;DHT22;10873;51.132;16.848;2022-11-15T12:18:01;24.50;54.30
21425;DHT22;10873;51.132;16.848;2022-11-15T12:20:30;24.50;54.30
21425;DHT22;10873;51.132;16.848;2022-11-15T12:23:01;24.50;54.30
21425;DHT22;10873;51.132;16.848;2022-11-15T12:25:33;24.50;54.30
21425;DHT22;10873;51.132;16.848;2022-11-15T12:28:03;24.60;54.30
21425;DHT22;10873;51.132;16.848;2022-11-15T12:30:42;24.60;54.30
21425;DHT22;10873;51.132;16.848;2022-11-15T12:33:32;24.60;54.30
21425;DHT22;10873;51.132;16.848;2022-11-15T12:36:01;24.60;54.40
21425;DHT22;10873;51.132;16.848;2022-11-15T12:38:51;24.60;54.40
21425;DHT22;10873;51.132;16.848;2022-11-15T12:41:19;24.60;54.40
21425;DHT22;10873;51.132;16.848;2022-11-15T12:43:46;24.60;54.40
21425;DHT22;10873;51.132;16.848;2022-11-15T12:46:20;24.60;54.40
21425;DHT22;10873;51.132;16.848;2022-11-15T12:48:54;24.60;54.40
21425;DHT22;10873;51.132;16.848;2022-11-15T12:57:37;24.60;54.40
21425;DHT22;10873;51.132;16.848;2022-11-15T13:03:24;24.60;54.40
21425;DHT22;10873;51.132;16.848;2022-11-15T13:05:57;24.60;54.40
21425;DHT22;10873;51.132;16.848;2022-11-15T13:08:50;24.60;54.40
21425;DHT22;10873;51.132;16.848;2022-11-15T13:11:41;24.60;54.40
21425;DHT22;10873;51.132;16.848;2022-11-15T13:14:42;24.60;54.40
21425;DHT22;10873;51.132;16.848;2022-11-15T13:17:40;24.60;54.40
21425;DHT22;10873;51.132;16.848;2022-11-15T13:20:21;24.60;54.40
21425;DHT22;10873;51.132;16.848;2022-11-15T13:22:50;24.60;54.40
21425;DHT22;10873;51.132;16.848;2022-11-15T13:25:34;24.60;54.30
21425;DHT22;10873;51.132;16.848;2022-11-15T13:28:10;24.60;54.40
21425;DHT22;10873;51.132;16.848;2022-11-15T13:30:37;24.60;54.40
21425;DHT22;10873;51.132;16.848;2022-11-15T13:33:08;24.60;54.40
21425;DHT22;10873;51.132;16.848;2022-11-15T13:35:39;24.60;54.40
21425;DHT22;10873;51.132;16.848;2022-11-15T13:38:19;24.60;54.40
21425;DHT22;10873;51.132;16.848;2022-11-15T13:40:45;24.60;54.40
21425;DHT22;10873;51.132;16.848;2022-11-15T13:43:23;24.70;54.50
21425;DHT22;10873;51.132;16.848;2022-11-15T13:46:05;24.60;54.50
21425;DHT22;10873;51.132;16.848;2022-11-15T13:48:31;24.70;54.50
21425;DHT22;10873;51.132;16.848;2022-11-15T13:50:59;24.70;54.50
21425;DHT22;10873;51.132;16.848;2022-11-15T13:53:27;24.70;54.50
21425;DHT22;10873;51.132;16.848;2022-11-15T13:55:54;24.70;54.50
21425;DHT22;10873;51.132;16.848;2022-11-15T13:58:21;24.70;54.50
21425;DHT22;10873;51.132;16.848;2022-11-15T14:00:47;24.80;54.50
21425;DHT22;10873;51.132;16.848;2022-11-15T14:03:18;24.80;54.50
21425;DHT22;10873;51.132;16.848;2022-11-15T14:05:58;24.80;54.50
21425;DHT22;10873;51.132;16.848;2022-11-15T14:08:29;24.80;55.50
21425;DHT22;10873;51.132;16.848;2022-11-15T14:11:11;24.80;56.20
21425;DHT22;10873;51.132;16.848;2022-11-15T14:13:39;24.80;56.50
21425;DHT22;10873;51.132;16.848;2022-11-15T14:16:16;24.90;56.50
21425;DHT22;10873;51.132;16.848;2022-11-15T14:18:45;24.90;56.50
21425;DHT22;10873;51.132;16.848;2022-11-15T14:21:11;24.90;56.40
21425;DHT22;10873;51.132;16.848;2022-11-15T14:23:39;24.90;56.30
21425;DHT22;10873;51.132;16.848;2022-11-15T14:26:05;25.00;56.20
21425;DHT22;10873;51.132;16.848;2022-11-15T14:28:32;25.00;56.20
21425;DHT22;10873;51.132;16.848;2022-11-15T14:31:10;25.00;56.10
21425;DHT22;10873;51.132;16.848;2022-11-15T14:33:37;25.00;56.00
21425;DHT22;10873;51.132;16.848;2022-11-15T14:36:10;25.00;55.90
21425;DHT22;10873;51.132;16.848;2022-11-15T14:38:38;25.00;55.90
21425;DHT22;10873;51.132;16.848;2022-11-15T14:41:04;25.00;55.80
21425;DHT22;10873;51.132;16.848;2022-11-15T14:43:31;25.00;55.80
21425;DHT22;10873;51.132;16.848;2022-11-15T14:45:57;25.00;55.70
21425;DHT22;10873;51.132;16.848;2022-11-15T14:48:24;25.10;55.70
21425;DHT22;10873;51.132;16.848;2022-11-15T14:50:50;25.00;55.60
21425;DHT22;10873;51.132;16.848;2022-11-15T14:53:17;25.00;55.50
21425;DHT22;10873;51.132;16.848;2022-11-15T14:55:44;25.10;55.50
21425;DHT22;10873;51.132;16.848;2022-11-15T14:58:10;25.00;55.50
21425;DHT22;10873;51.132;16.848;2022-11-15T15:00:37;25.10;55.50
21425;DHT22;10873;51.132;16.848;2022-11-15T15:03:05;25.00;55.30
21425;DHT22;10873;51.132;16.848;2022-11-15T15:05:34;25.10;55.30
21425;DHT22;10873;51.132;16.848;2022-11-15T15:08:01;25.10;55.30
21425;DHT22;10873;51.132;16.848;2022-11-15T15:10:30;25.00;55.10
21425;DHT22;10873;51.132;16.848;2022-11-15T15:12:58;25.00;55.10
21425;DHT22;10873;51.132;16.848;2022-11-15T15:15:26;25.00;55.00
21425;DHT22;10873;51.132;16.848;2022-11-15T15:17:52;25.00;55.00
21425;DHT22;10873;51.132;16.848;2022-11-15T15:20:18;25.00;54.80
21425;DHT22;10873;51.132;16.848;2022-11-15T15:22:44;25.00;54.80
21425;DHT22;10873;51.132;16.848;2022-11-15T15:25:24;25.00;54.80
21425;DHT22;10873;51.132;16.848;2022-11-15T15:27:52;25.00;54.80
21425;DHT22;10873;51.132;16.848;2022-11-15T15:30:20;25.00;54.80
21425;DHT22;10873;51.132;16.848;2022-11-15T15:32:46;25.00;54.80
21425;DHT22;10873;51.132;16.848;2022-11-15T15:35:13;25.00;54.90
21425;DHT22;10873;51.132;16.848;2022-11-15T15:37:40;25.00;55.00
21425;DHT22;10873;51.132;16.848;2022-11-15T15:40:13;25.00;55.00
21425;DHT22;10873;51.132;16.848;2022-11-15T15:42:40;25.00;55.00
21425;DHT22;10873;51.132;16.848;2022-11-15T15:45:07;25.00;55.00
21425;DHT22;10873;51.132;16.848;2022-11-15T15:47:35;25.00;55.00
21425;DHT22;10873;51.132;16.848;2022-11-15T15:50:01;25.00;55.00
21425;DHT22;10873;51.132;16.848;2022-11-15T15:52:27;25.00;55.00
21425;DHT22;10873;51.132;16.848;2022-11-15T15:54:53;25.00;54.90
21425;DHT22;10873;51.132;16.848;2022-11-15T15:57:19;25.00;54.90